Time;durP1;ratioP1;P1;durP2;ratioP2;P2;SDS_P1;SDS_P2;PMS_P1;PMS_P2;Temp;Humidity;BMP_temperature;BMP_pressure;BME280_temperature;BME280_humidity;BME280_pressure;Samples;Min_cycle;Max_cycle;Signal;HPM_P1;HPM_P2
2023/12/17 10:53:58;;;;;;;;;;;7.10;99.90;;;;;;2603177;46;20777;-73
2023/12/17 11:09:40;;;;;;;;;;;7.00;99.90;;;;;;2618454;54;19946;-75
2023/12/17 11:12:10;;;;;;;;;;;7.00;99.90;;;;;;2618716;54;19958;-77
2023/12/17 11:14:42;;;;;;;;;;;7.00;99.90;;;;;;2615704;54;20667;-74
2023/12/17 11:20:00;;;;;;;;;;;6.90;99.90;;;;;;2596536;54;19993;-72
2023/12/17 11:22:30;;;;;;;;;;;7.00;99.90;;;;;;2599024;46;19955;-73
2023/12/17 11:25:02;;;;;;;;;;;7.00;99.90;;;;;;2600936;54;19973;-73
2023/12/17 11:27:33;;;;;;;;;;;6.90;99.90;;;;;;2599770;46;19951;-73
2023/12/17 11:30:06;;;;;;;;;;;6.90;99.90;;;;;;2604947;39;20016;-72
2023/12/17 11:32:36;;;;;;;;;;;6.90;99.90;;;;;;2602357;46;19950;-72
2023/12/17 11:35:06;;;;;;;;;;;6.90;99.90;;;;;;2596889;38;20349;-73
2023/12/17 11:37:36;;;;;;;;;;;6.80;99.90;;;;;;2601222;54;20544;-72
2023/12/17 11:40:09;;;;;;;;;;;6.80;99.90;;;;;;2599415;54;19953;-73
2023/12/17 11:42:40;;;;;;;;;;;6.70;99.90;;;;;;2600944;47;19947;-74
2023/12/17 11:45:10;;;;;;;;;;;6.80;99.90;;;;;;2601174;38;20380;-71
2023/12/17 11:47:40;;;;;;;;;;;6.80;99.90;;;;;;2602617;47;20001;-71
2023/12/17 11:50:12;;;;;;;;;;;6.80;99.90;;;;;;2605593;38;20348;-72
2023/12/17 11:52:42;;;;;;;;;;;6.80;99.90;;;;;;2607809;47;19955;-73
2023/12/17 11:55:14;;;;;;;;;;;6.90;99.90;;;;;;2600398;52;19958;-71
2023/12/17 11:57:44;;;;;;;;;;;6.90;99.90;;;;;;2600986;46;20516;-72
2023/12/17 12:00:14;;;;;;;;;;;6.90;99.90;;;;;;2600057;54;20585;-72
2023/12/17 12:02:45;;;;;;;;;;;6.90;99.90;;;;;;2599786;54;19954;-71
2023/12/17 12:05:17;;;;;;;;;;;6.80;99.90;;;;;;2600621;47;21487;-73
2023/12/17 12:07:47;;;;;;;;;;;6.80;99.90;;;;;;2598079;54;19953;-71
2023/12/17 12:10:20;;;;;;;;;;;6.70;99.90;;;;;;2595812;47;19982;-71
2023/12/17 12:13:01;;;;;;;;;;;6.70;99.90;;;;;;2595742;47;19977;-72
2023/12/17 12:15:31;;;;;;;;;;;6.90;99.90;;;;;;2596614;54;19951;-73
2023/12/17 12:18:01;;;;;;;;;;;6.70;99.90;;;;;;2597584;47;19990;-73
2023/12/17 12:20:38;;;;;;;;;;;6.70;99.90;;;;;;2597677;47;20102;-73
2023/12/17 12:23:11;;;;;;;;;;;6.70;99.90;;;;;;2597350;47;19970;-71
2023/12/17 12:25:43;;;;;;;;;;;6.70;99.90;;;;;;2597766;39;20488;-72
2023/12/17 12:28:19;;;;;;;;;;;6.60;99.90;;;;;;2597118;54;19954;-71
2023/12/17 12:30:53;;;;;;;;;;;6.60;99.90;;;;;;2598347;47;19939;-71
2023/12/17 12:33:26;;;;;;;;;;;6.50;99.90;;;;;;2595109;47;19954;-71
2023/12/17 12:36:06;;;;;;;;;;;6.40;99.90;;;;;;2601708;39;20380;-73
2023/12/17 12:38:36;;;;;;;;;;;6.50;99.90;;;;;;2617950;39;20021;-75
2023/12/17 12:41:14;;;;;;;;;;;6.50;99.90;;;;;;2615647;54;19943;-76
2023/12/17 12:43:44;;;;;;;;;;;6.50;99.90;;;;;;2615770;47;20473;-75
2023/12/17 12:46:14;;;;;;;;;;;6.60;99.90;;;;;;2616866;47;19938;-74
2023/12/17 12:48:43;;;;;;;;;;;6.10;99.90;;;;;;2617770;47;19946;-74
2023/12/17 12:51:13;;;;;;;;;;;7.00;99.90;;;;;;2618113;39;20348;-74
2023/12/17 12:53:44;;;;;;;;;;;6.70;99.90;;;;;;2618061;54;20070;-75
2023/12/17 12:56:16;;;;;;;;;;;6.50;99.90;;;;;;2618163;53;19961;-73
2023/12/17 12:58:46;;;;;;;;;;;6.50;99.90;;;;;;2618078;54;19953;-75
2023/12/17 13:01:16;;;;;;;;;;;6.50;99.90;;;;;;2615366;54;19939;-66
2023/12/17 13:03:46;;;;;;;;;;;6.40;99.90;;;;;;2613967;54;20402;-64
2023/12/17 13:06:16;;;;;;;;;;;6.50;99.90;;;;;;2613735;54;19953;-65
2023/12/17 13:08:46;;;;;;;;;;;6.70;99.90;;;;;;2614887;54;19957;-64
2023/12/17 13:11:18;;;;;;;;;;;6.60;99.90;;;;;;2614832;47;19947;-63
2023/12/17 13:13:48;;;;;;;;;;;6.70;99.90;;;;;;2613078;54;19939;-65
2023/12/17 13:16:18;;;;;;;;;;;6.70;99.90;;;;;;2612352;54;19951;-66
2023/12/17 13:18:48;;;;;;;;;;;6.70;99.90;;;;;;2616157;54;19938;-65
2023/12/17 13:21:30;;;;;;;;;;;6.80;99.90;;;;;;2613510;54;19947;-74
2023/12/17 13:24:00;;;;;;;;;;;6.70;99.90;;;;;;2613239;47;19955;-73
2023/12/17 13:26:32;;;;;;;;;;;6.70;99.90;;;;;;2616108;54;20445;-73
2023/12/17 13:29:01;;;;;;;;;;;6.80;99.90;;;;;;2616969;47;19942;-73
2023/12/17 13:31:31;;;;;;;;;;;6.70;99.90;;;;;;2615649;47;19954;-73
2023/12/17 13:34:01;;;;;;;;;;;6.70;99.90;;;;;;2614696;47;20449;-73
2023/12/17 13:36:31;;;;;;;;;;;6.90;99.90;;;;;;2615817;54;19943;-75
2023/12/17 13:39:01;;;;;;;;;;;6.90;99.90;;;;;;2610382;39;20337;-73
2023/12/17 13:41:38;;;;;;;;;;;6.80;99.90;;;;;;2613717;47;19946;-73
2023/12/17 13:44:17;;;;;;;;;;;6.80;99.90;;;;;;2614914;47;19942;-73
2023/12/17 13:49:18;;;;;;;;;;;6.70;99.90;;;;;;2607455;54;19973;-74
2023/12/17 13:51:48;;;;;;;;;;;6.70;99.90;;;;;;2611797;54;19947;-77
2023/12/17 13:54:18;;;;;;;;;;;6.60;99.90;;;;;;2610888;54;19951;-73
2023/12/17 13:56:50;;;;;;;;;;;6.60;99.90;;;;;;2613362;47;19947;-74
2023/12/17 13:59:20;;;;;;;;;;;6.60;99.90;;;;;;2615120;47;19950;-74
2023/12/17 14:01:50;;;;;;;;;;;6.60;99.90;;;;;;2614686;54;20015;-74
2023/12/17 14:04:19;;;;;;;;;;;6.60;99.90;;;;;;2613395;39;20350;-75
2023/12/17 14:06:50;;;;;;;;;;;6.70;99.90;;;;;;2613875;47;19946;-75
2023/12/17 14:09:20;;;;;;;;;;;6.70;99.90;;;;;;2612682;54;19962;-76
2023/12/17 14:11:52;;;;;;;;;;;6.70;99.90;;;;;;2611466;39;20355;-77
2023/12/17 14:14:21;;;;;;;;;;;6.70;99.90;;;;;;2616205;47;19947;-75
2023/12/17 14:16:51;;;;;;;;;;;6.70;99.90;;;;;;2616135;47;19962;-77
2023/12/17 14:19:21;;;;;;;;;;;6.70;99.90;;;;;;2614732;47;19946;-76
2023/12/17 14:21:50;;;;;;;;;;;6.70;99.90;;;;;;2614673;47;19957;-75
2023/12/17 14:24:20;;;;;;;;;;;6.60;99.90;;;;;;2616863;49;20418;-74
2023/12/17 14:26:53;;;;;;;;;;;6.40;99.90;;;;;;2614322;47;19958;-74
2023/12/17 14:29:22;;;;;;;;;;;6.30;99.90;;;;;;2615573;54;19946;-72
2023/12/17 14:31:52;;;;;;;;;;;6.40;99.90;;;;;;2613667;54;19974;-75
2023/12/17 14:34:21;;;;;;;;;;;6.30;99.90;;;;;;2617383;54;19941;-77
2023/12/17 14:36:51;;;;;;;;;;;6.30;99.90;;;;;;2614332;47;19960;-76
2023/12/17 14:39:21;;;;;;;;;;;6.30;99.90;;;;;;2613242;47;19961;-76
2023/12/17 14:41:53;;;;;;;;;;;6.30;99.90;;;;;;2610849;39;20401;-78
2023/12/17 14:44:23;;;;;;;;;;;6.20;99.90;;;;;;2615767;47;19974;-76
2023/12/17 14:46:53;;;;;;;;;;;6.40;99.90;;;;;;2616915;47;20492;-74
2023/12/17 14:49:22;;;;;;;;;;;6.10;99.90;;;;;;2617215;47;19946;-75
2023/12/17 14:51:52;;;;;;;;;;;6.20;99.90;;;;;;2616200;47;19950;-76
2023/12/17 14:54:22;;;;;;;;;;;6.10;99.90;;;;;;2614628;47;20051;-76
2023/12/17 14:56:54;;;;;;;;;;;6.10;99.90;;;;;;2616559;39;20392;-77
2023/12/17 14:59:24;;;;;;;;;;;6.20;99.90;;;;;;2615505;47;19953;-74
2023/12/17 15:01:55;;;;;;;;;;;6.20;99.90;;;;;;2614228;47;19935;-80
2023/12/17 15:04:27;;;;;;;;;;;6.20;99.90;;;;;;2614409;47;19947;-74
2023/12/17 15:06:56;;;;;;;;;;;6.20;99.90;;;;;;2594625;47;19938;-73
2023/12/17 15:09:26;;;;;;;;;;;6.20;99.90;;;;;;2616242;47;19946;-76
2023/12/17 15:12:00;;;;;;;;;;;6.20;99.90;;;;;;2615717;54;19946;-75
2023/12/17 15:14:29;;;;;;;;;;;6.20;99.90;;;;;;2619046;47;19947;-75
2023/12/17 15:16:59;;;;;;;;;;;6.20;99.90;;;;;;2616042;54;19939;-76
2023/12/17 15:19:28;;;;;;;;;;;6.20;99.90;;;;;;2616623;54;19973;-75
2023/12/17 15:21:58;;;;;;;;;;;6.20;99.90;;;;;;2615503;47;19951;-75
2023/12/17 15:24:28;;;;;;;;;;;6.10;99.90;;;;;;2614718;47;20058;-75
2023/12/17 15:27:00;;;;;;;;;;;6.10;99.90;;;;;;2617789;47;20459;-75
2023/12/17 15:29:30;;;;;;;;;;;6.10;99.90;;;;;;2613790;54;19970;-74
2023/12/17 15:32:00;;;;;;;;;;;6.10;99.90;;;;;;2612417;47;20520;-75
2023/12/17 15:34:29;;;;;;;;;;;6.10;99.90;;;;;;2614745;47;20465;-74
2023/12/17 15:36:59;;;;;;;;;;;6.10;99.90;;;;;;2614145;47;19946;-75
2023/12/17 15:39:29;;;;;;;;;;;6.10;99.90;;;;;;2612732;54;20714;-75
2023/12/17 15:42:01;;;;;;;;;;;6.10;99.90;;;;;;2614595;54;19939;-74
2023/12/17 15:44:31;;;;;;;;;;;6.00;99.90;;;;;;2614373;54;20070;-73
2023/12/17 15:47:00;;;;;;;;;;;6.10;99.90;;;;;;2613357;47;19946;-74
2023/12/17 15:49:30;;;;;;;;;;;6.10;99.90;;;;;;2611791;47;19953;-73
2023/12/17 15:52:00;;;;;;;;;;;6.10;99.90;;;;;;2613821;47;19950;-74
2023/12/17 15:54:29;;;;;;;;;;;6.10;99.90;;;;;;2614456;54;20468;-72
2023/12/17 15:57:02;;;;;;;;;;;6.10;99.90;;;;;;2614247;47;19951;-72
2023/12/17 15:59:32;;;;;;;;;;;6.10;99.90;;;;;;2615684;54;19950;-73
2023/12/17 16:02:02;;;;;;;;;;;6.10;99.90;;;;;;2615537;54;19951;-72
2023/12/17 16:04:32;;;;;;;;;;;6.10;99.90;;;;;;2614971;54;19954;-71
2023/12/17 16:07:02;;;;;;;;;;;6.10;99.90;;;;;;2613307;54;19961;-70
2023/12/17 16:09:32;;;;;;;;;;;6.00;99.90;;;;;;2612951;54;19938;-71
2023/12/17 16:12:04;;;;;;;;;;;6.00;99.90;;;;;;2615810;47;20047;-71
2023/12/17 16:14:34;;;;;;;;;;;5.90;99.90;;;;;;2614995;54;20033;-71
2023/12/17 16:17:04;;;;;;;;;;;5.90;99.90;;;;;;2615551;39;20357;-72
2023/12/17 16:19:33;;;;;;;;;;;5.90;99.90;;;;;;2613573;47;19946;-72
2023/12/17 16:22:03;;;;;;;;;;;5.90;99.90;;;;;;2615326;39;20365;-74
2023/12/17 16:24:33;;;;;;;;;;;6.00;99.90;;;;;;2615050;46;20454;-73
2023/12/17 16:27:06;;;;;;;;;;;6.00;99.90;;;;;;2616598;54;19954;-73
2023/12/17 16:29:36;;;;;;;;;;;6.00;99.90;;;;;;2616757;47;19947;-74
2023/12/17 16:32:06;;;;;;;;;;;5.90;99.90;;;;;;2617182;54;19939;-73
2023/12/17 16:34:36;;;;;;;;;;;5.90;99.90;;;;;;2616270;47;20034;-74
2023/12/17 16:37:06;;;;;;;;;;;6.00;99.90;;;;;;2616848;47;19954;-76
2023/12/17 16:39:36;;;;;;;;;;;6.00;99.90;;;;;;2615247;47;19946;-75
2023/12/17 16:42:08;;;;;;;;;;;5.90;99.90;;;;;;2618711;54;19959;-73
2023/12/17 16:44:38;;;;;;;;;;;5.90;99.90;;;;;;2617166;47;20002;-72
2023/12/17 16:47:08;;;;;;;;;;;5.90;99.90;;;;;;2616466;47;20485;-75
2023/12/17 16:49:37;;;;;;;;;;;5.90;99.90;;;;;;2616224;47;19949;-74
2023/12/17 16:52:08;;;;;;;;;;;5.90;99.90;;;;;;2616490;54;19975;-74
2023/12/17 16:54:38;;;;;;;;;;;6.00;99.90;;;;;;2615754;54;21331;-75
2023/12/17 16:57:11;;;;;;;;;;;6.00;99.90;;;;;;2616112;54;19963;-75
2023/12/17 16:59:42;;;;;;;;;;;6.00;99.90;;;;;;2615807;47;19946;-73
2023/12/17 17:02:12;;;;;;;;;;;6.20;99.90;;;;;;2617918;39;20456;-74
2023/12/17 17:04:42;;;;;;;;;;;6.00;99.90;;;;;;2615615;47;19947;-74
2023/12/17 17:07:13;;;;;;;;;;;6.10;99.90;;;;;;2616414;47;19953;-74
2023/12/17 17:09:43;;;;;;;;;;;6.10;99.90;;;;;;2614034;47;20472;-76
2023/12/17 17:12:15;;;;;;;;;;;6.00;99.90;;;;;;2616151;54;19946;-76
2023/12/17 17:14:45;;;;;;;;;;;5.90;99.90;;;;;;2616026;39;20381;-74
2023/12/17 17:17:15;;;;;;;;;;;5.90;99.90;;;;;;2616603;54;19939;-74
2023/12/17 17:19:45;;;;;;;;;;;5.90;99.90;;;;;;2616430;47;19957;-73
2023/12/17 17:22:14;;;;;;;;;;;5.90;99.90;;;;;;2616495;47;20031;-73
2023/12/17 17:24:44;;;;;;;;;;;6.80;99.90;;;;;;2613526;47;19950;-74
2023/12/17 17:27:16;;;;;;;;;;;6.00;99.90;;;;;;2615795;47;20070;-73
2023/12/17 17:29:47;;;;;;;;;;;6.00;99.90;;;;;;2615230;47;20026;-73
2023/12/17 17:32:18;;;;;;;;;;;6.00;99.90;;;;;;2615707;47;20757;-73
2023/12/17 17:34:48;;;;;;;;;;;6.00;99.90;;;;;;2615270;54;19946;-73
2023/12/17 17:37:18;;;;;;;;;;;5.90;99.90;;;;;;2615446;47;20480;-72
2023/12/17 17:39:48;;;;;;;;;;;5.90;99.90;;;;;;2613249;47;19947;-76
2023/12/17 17:42:20;;;;;;;;;;;5.90;99.90;;;;;;2614592;39;20464;-73
2023/12/17 17:44:49;;;;;;;;;;;5.90;99.90;;;;;;2615729;47;19954;-75
2023/12/17 17:47:19;;;;;;;;;;;5.80;99.90;;;;;;2614228;54;19945;-73
2023/12/17 17:49:50;;;;;;;;;;;5.80;99.90;;;;;;2615599;46;19970;-73
2023/12/17 17:52:22;;;;;;;;;;;5.80;99.90;;;;;;2613135;46;19981;-73
2023/12/17 17:54:51;;;;;;;;;;;6.10;99.90;;;;;;2614740;47;20469;-74
2023/12/17 17:57:24;;;;;;;;;;;5.80;99.90;;;;;;2614993;47;20016;-72
2023/12/17 17:59:53;;;;;;;;;;;5.70;99.90;;;;;;2614125;54;19951;-75
2023/12/17 18:02:23;;;;;;;;;;;5.80;99.90;;;;;;2614843;47;19998;-75
2023/12/17 18:04:53;;;;;;;;;;;6.10;99.90;;;;;;2614825;46;20496;-75
2023/12/17 18:07:23;;;;;;;;;;;5.80;99.90;;;;;;2616612;54;19994;-72
2023/12/17 18:09:53;;;;;;;;;;;5.80;99.90;;;;;;2615303;54;19980;-74
2023/12/17 18:12:25;;;;;;;;;;;5.90;99.90;;;;;;2614931;47;20034;-74
2023/12/17 18:14:55;;;;;;;;;;;5.80;99.90;;;;;;2614601;39;20342;-73
2023/12/17 18:17:26;;;;;;;;;;;5.90;99.90;;;;;;2613668;54;19946;-74
2023/12/17 18:19:55;;;;;;;;;;;5.90;99.90;;;;;;2614665;47;19953;-73
2023/12/17 18:22:25;;;;;;;;;;;5.90;99.90;;;;;;2612240;47;19954;-73
2023/12/17 18:24:55;;;;;;;;;;;5.90;99.90;;;;;;2612569;54;19953;-73
2023/12/17 18:27:27;;;;;;;;;;;5.80;99.90;;;;;;2614854;47;19939;-73
2023/12/17 18:29:57;;;;;;;;;;;5.90;99.90;;;;;;2615228;54;20078;-74
2023/12/17 18:32:27;;;;;;;;;;;5.90;99.90;;;;;;2614978;54;19946;-74
2023/12/17 18:34:57;;;;;;;;;;;5.90;99.90;;;;;;2615640;47;20533;-73
2023/12/17 18:37:27;;;;;;;;;;;6.00;99.90;;;;;;2616568;47;19939;-73
2023/12/17 18:39:57;;;;;;;;;;;6.00;99.90;;;;;;2615219;54;20007;-75
2023/12/17 18:42:29;;;;;;;;;;;5.90;99.90;;;;;;2614262;47;19953;-75
2023/12/17 18:44:59;;;;;;;;;;;5.90;99.90;;;;;;2616108;47;19950;-75
2023/12/17 18:47:29;;;;;;;;;;;5.90;99.90;;;;;;2615157;39;20346;-73
2023/12/17 18:49:58;;;;;;;;;;;5.90;99.90;;;;;;2615406;47;19951;-76
2023/12/17 18:52:28;;;;;;;;;;;5.90;99.90;;;;;;2614057;54;19946;-75
2023/12/17 18:54:58;;;;;;;;;;;5.90;99.90;;;;;;2616722;54;19947;-77
2023/12/17 18:57:31;;;;;;;;;;;5.90;99.90;;;;;;2617044;46;19966;-76
2023/12/17 19:00:01;;;;;;;;;;;5.90;99.90;;;;;;2617816;47;19947;-78
2023/12/17 19:02:32;;;;;;;;;;;5.90;99.90;;;;;;2617884;47;19938;-77
2023/12/17 19:05:02;;;;;;;;;;;5.90;99.90;;;;;;2619105;54;19939;-78
2023/12/17 19:07:31;;;;;;;;;;;5.90;99.90;;;;;;2618857;47;20705;-76
2023/12/17 19:10:01;;;;;;;;;;;5.90;99.90;;;;;;2616525;54;20033;-76
2023/12/17 19:12:33;;;;;;;;;;;5.90;99.90;;;;;;2616371;47;19966;-75
2023/12/17 19:15:03;;;;;;;;;;;5.90;99.90;;;;;;2617163;47;19961;-75
2023/12/17 19:17:33;;;;;;;;;;;5.90;99.90;;;;;;2615370;47;19950;-75
2023/12/17 19:20:03;;;;;;;;;;;5.90;99.90;;;;;;2617590;39;20372;-76
2023/12/17 19:22:33;;;;;;;;;;;5.90;99.90;;;;;;2615596;39;20654;-73
2023/12/17 19:25:03;;;;;;;;;;;5.80;99.90;;;;;;2616468;39;20333;-74
2023/12/17 19:27:35;;;;;;;;;;;6.20;99.90;;;;;;2615787;47;19947;-75
2023/12/17 19:30:05;;;;;;;;;;;5.80;99.90;;;;;;2617691;47;20018;-75
2023/12/17 19:32:35;;;;;;;;;;;5.80;99.90;;;;;;2615797;46;19946;-73
2023/12/17 19:35:05;;;;;;;;;;;5.80;99.90;;;;;;2617395;47;19950;-74
2023/12/17 19:37:35;;;;;;;;;;;5.80;99.90;;;;;;2614653;54;19938;-71
2023/12/17 19:40:05;;;;;;;;;;;5.80;99.90;;;;;;2615995;39;20379;-70
2023/12/17 19:42:38;;;;;;;;;;;5.80;99.90;;;;;;2613831;54;19946;-72
2023/12/17 19:45:08;;;;;;;;;;;5.90;99.90;;;;;;2613938;54;19946;-70
2023/12/17 19:47:38;;;;;;;;;;;5.90;99.90;;;;;;2616672;54;19957;-72
2023/12/17 19:50:08;;;;;;;;;;;5.80;99.90;;;;;;2616890;46;19958;-71
2023/12/17 19:52:39;;;;;;;;;;;5.90;99.90;;;;;;2619751;39;20360;-72
2023/12/17 19:55:09;;;;;;;;;;;7.10;99.90;;;;;;2617861;47;19949;-73
2023/12/17 19:57:42;;;;;;;;;;;5.90;99.90;;;;;;2618534;54;19950;-74
2023/12/17 20:00:12;;;;;;;;;;;5.90;99.90;;;;;;2618853;46;19977;-72
2023/12/17 20:02:42;;;;;;;;;;;5.90;99.90;;;;;;2616183;39;20551;-74
2023/12/17 20:05:12;;;;;;;;;;;6.00;99.90;;;;;;2615748;47;19945;-73
2023/12/17 20:07:42;;;;;;;;;;;6.00;99.90;;;;;;2615099;47;19955;-73
2023/12/17 20:10:11;;;;;;;;;;;5.90;99.90;;;;;;2614874;47;19938;-75
2023/12/17 20:12:51;;;;;;;;;;;5.80;99.90;;;;;;2614273;52;19947;-73
2023/12/17 20:15:21;;;;;;;;;;;5.80;99.90;;;;;;2614342;47;19954;-74
2023/12/17 20:17:52;;;;;;;;;;;5.80;99.90;;;;;;2616711;47;19977;-74
2023/12/17 20:20:21;;;;;;;;;;;5.90;99.90;;;;;;2616987;39;20347;-72
2023/12/17 20:22:51;;;;;;;;;;;5.90;99.90;;;;;;2619253;54;19954;-71
2023/12/17 20:25:21;;;;;;;;;;;5.90;99.90;;;;;;2617545;46;19939;-73
2023/12/17 20:27:54;;;;;;;;;;;6.00;99.90;;;;;;2619283;54;20458;-74
2023/12/17 20:30:24;;;;;;;;;;;6.00;99.90;;;;;;2615364;47;19946;-73
2023/12/17 20:32:54;;;;;;;;;;;6.00;99.90;;;;;;2615282;39;20685;-73
2023/12/17 20:35:24;;;;;;;;;;;6.10;99.90;;;;;;2616343;54;19954;-72
2023/12/17 20:37:53;;;;;;;;;;;6.00;99.90;;;;;;2616255;54;20406;-74
2023/12/17 20:40:27;;;;;;;;;;;6.10;99.90;;;;;;2614152;54;19947;-73
2023/12/17 20:43:00;;;;;;;;;;;6.10;99.90;;;;;;2613539;46;19947;-69
2023/12/17 20:45:31;;;;;;;;;;;5.90;99.90;;;;;;2615691;47;20041;-73
2023/12/17 20:48:01;;;;;;;;;;;6.10;99.90;;;;;;2614226;54;19958;-73
2023/12/17 20:50:32;;;;;;;;;;;6.10;99.90;;;;;;2616015;47;19947;-74
2023/12/17 20:53:03;;;;;;;;;;;6.20;99.90;;;;;;2612943;54;19946;-74
2023/12/17 20:55:33;;;;;;;;;;;6.20;99.90;;;;;;2614220;54;19946;-74
2023/12/17 20:58:06;;;;;;;;;;;6.10;99.90;;;;;;2614549;47;19935;-74
2023/12/17 21:00:36;;;;;;;;;;;6.20;99.90;;;;;;2614962;47;19946;-75
2023/12/17 21:03:07;;;;;;;;;;;6.20;99.90;;;;;;2614844;54;19958;-73
2023/12/17 21:05:37;;;;;;;;;;;6.20;99.90;;;;;;2615789;47;19957;-74
2023/12/17 21:08:07;;;;;;;;;;;6.20;99.90;;;;;;2616053;47;19981;-74
2023/12/17 21:10:37;;;;;;;;;;;6.10;99.90;;;;;;2610638;47;20091;-73
2023/12/17 21:13:10;;;;;;;;;;;6.10;99.90;;;;;;2612195;47;19946;-74
2023/12/17 21:15:39;;;;;;;;;;;6.10;99.90;;;;;;2614025;47;19954;-74
2023/12/17 21:18:10;;;;;;;;;;;6.10;99.90;;;;;;2616704;47;19965;-73
2023/12/17 21:20:40;;;;;;;;;;;6.10;99.90;;;;;;2616832;54;19947;-74
2023/12/17 21:23:09;;;;;;;;;;;6.20;99.90;;;;;;2615531;54;19954;-73
2023/12/17 21:25:39;;;;;;;;;;;5.50;99.90;;;;;;2614683;54;20037;-73
2023/12/17 21:28:11;;;;;;;;;;;6.20;99.90;;;;;;2615010;46;19946;-73
2023/12/17 21:30:41;;;;;;;;;;;6.20;99.90;;;;;;2616340;47;19950;-73
2023/12/17 21:33:10;;;;;;;;;;;6.30;99.90;;;;;;2615927;47;19969;-73
2023/12/17 21:35:40;;;;;;;;;;;6.30;99.90;;;;;;2615391;47;19947;-73
2023/12/17 21:38:10;;;;;;;;;;;6.30;99.90;;;;;;2614148;54;20753;-72
2023/12/17 21:40:40;;;;;;;;;;;6.30;99.90;;;;;;2614205;39;20349;-73
2023/12/17 21:43:12;;;;;;;;;;;6.30;99.90;;;;;;2615703;47;20107;-73
2023/12/17 21:45:42;;;;;;;;;;;6.30;99.90;;;;;;2615975;54;19954;-73
2023/12/17 21:48:12;;;;;;;;;;;6.40;99.90;;;;;;2616092;54;20051;-73
2023/12/17 21:50:42;;;;;;;;;;;6.30;99.90;;;;;;2613016;47;19953;-72
2023/12/17 21:53:12;;;;;;;;;;;6.30;99.90;;;;;;2617013;47;19974;-74
2023/12/17 21:55:41;;;;;;;;;;;6.10;99.90;;;;;;2615439;54;19939;-72
2023/12/17 21:58:13;;;;;;;;;;;6.10;99.90;;;;;;2616217;47;19943;-74
2023/12/17 22:00:43;;;;;;;;;;;6.10;99.90;;;;;;2614688;54;19943;-74
2023/12/17 22:03:13;;;;;;;;;;;6.10;99.90;;;;;;2616773;54;20454;-74
2023/12/17 22:05:42;;;;;;;;;;;6.10;99.90;;;;;;2613568;47;20517;-75
2023/12/17 22:08:12;;;;;;;;;;;6.10;99.90;;;;;;2614284;47;19965;-74
2023/12/17 22:10:42;;;;;;;;;;;6.10;99.90;;;;;;2614557;47;19946;-73
2023/12/17 22:13:14;;;;;;;;;;;6.30;99.90;;;;;;2615724;47;20050;-72
2023/12/17 22:15:43;;;;;;;;;;;6.20;99.90;;;;;;2616036;47;20465;-73
2023/12/17 22:18:14;;;;;;;;;;;6.20;99.90;;;;;;2613616;47;19985;-73
2023/12/17 22:20:44;;;;;;;;;;;6.20;99.90;;;;;;2616462;47;19954;-73
2023/12/17 22:23:14;;;;;;;;;;;6.20;99.90;;;;;;2615553;47;19950;-73
2023/12/17 22:25:44;;;;;;;;;;;6.20;99.90;;;;;;2612753;54;19950;-72
2023/12/17 22:28:16;;;;;;;;;;;6.20;99.90;;;;;;2616802;46;19981;-73
2023/12/17 22:30:46;;;;;;;;;;;6.20;99.90;;;;;;2618026;47;19939;-73
2023/12/17 22:33:15;;;;;;;;;;;6.20;99.90;;;;;;2617321;47;19935;-73
2023/12/17 22:35:45;;;;;;;;;;;6.20;99.90;;;;;;2617456;39;20100;-73
2023/12/17 22:38:15;;;;;;;;;;;6.20;99.90;;;;;;2616958;47;19950;-73
2023/12/17 22:40:45;;;;;;;;;;;6.20;99.90;;;;;;2615136;47;20693;-73
2023/12/17 22:43:17;;;;;;;;;;;6.20;99.90;;;;;;2617454;47;20042;-74
2023/12/17 22:45:47;;;;;;;;;;;6.20;99.90;;;;;;2615741;47;19946;-74
2023/12/17 22:48:16;;;;;;;;;;;6.20;99.90;;;;;;2617466;54;19947;-72
2023/12/17 22:50:46;;;;;;;;;;;6.20;99.90;;;;;;2617121;47;19951;-74
2023/12/17 22:53:16;;;;;;;;;;;6.20;99.90;;;;;;2617290;47;19938;-74
2023/12/17 22:55:45;;;;;;;;;;;7.20;99.90;;;;;;2615519;47;19958;-73
2023/12/17 22:58:17;;;;;;;;;;;6.20;99.90;;;;;;2615985;54;19946;-73
2023/12/17 23:00:47;;;;;;;;;;;6.20;99.90;;;;;;2615930;47;19947;-73
2023/12/17 23:03:17;;;;;;;;;;;6.20;99.90;;;;;;2617221;54;19979;-74
2023/12/17 23:05:48;;;;;;;;;;;6.20;99.90;;;;;;2617260;46;19962;-73
2023/12/17 23:08:17;;;;;;;;;;;6.20;99.90;;;;;;2616915;54;19947;-72
2023/12/17 23:10:47;;;;;;;;;;;6.20;99.90;;;;;;2615200;54;19954;-74
2023/12/17 23:13:19;;;;;;;;;;;6.20;99.90;;;;;;2617685;47;19939;-73
2023/12/17 23:15:48;;;;;;;;;;;6.20;99.90;;;;;;2616202;47;19938;-73
2023/12/17 23:18:18;;;;;;;;;;;6.20;99.90;;;;;;2617278;47;19946;-73
2023/12/17 23:20:48;;;;;;;;;;;6.20;99.90;;;;;;2617692;54;20461;-73
2023/12/17 23:23:18;;;;;;;;;;;6.20;99.90;;;;;;2618289;39;20345;-73
2023/12/17 23:25:47;;;;;;;;;;;6.10;99.90;;;;;;2616227;54;19946;-73
2023/12/17 23:28:19;;;;;;;;;;;6.10;99.90;;;;;;2616514;47;19950;-73
2023/12/17 23:30:49;;;;;;;;;;;6.10;99.90;;;;;;2616647;47;19977;-73
2023/12/17 23:33:19;;;;;;;;;;;6.00;99.90;;;;;;2616533;47;20106;-74
2023/12/17 23:35:49;;;;;;;;;;;6.00;99.90;;;;;;2616720;47;19950;-74
2023/12/17 23:38:19;;;;;;;;;;;6.10;99.90;;;;;;2614686;47;19942;-73
2023/12/17 23:40:48;;;;;;;;;;;6.10;99.90;;;;;;2612899;54;19947;-73
2023/12/17 23:43:21;;;;;;;;;;;6.00;99.90;;;;;;2615484;47;19994;-73
2023/12/17 23:45:52;;;;;;;;;;;6.10;99.90;;;;;;2616815;47;20033;-73
2023/12/17 23:48:22;;;;;;;;;;;6.10;99.90;;;;;;2616607;53;20018;-73
2023/12/17 23:50:52;;;;;;;;;;;6.00;99.90;;;;;;2616669;46;20000;-73
2023/12/17 23:53:21;;;;;;;;;;;6.00;99.90;;;;;;2616868;47;19954;-73
2023/12/17 23:55:52;;;;;;;;;;;6.00;99.90;;;;;;2616163;54;19947;-73
2023/12/17 23:58:24;;;;;;;;;;;6.00;99.90;;;;;;2617808;47;19946;-74
